createdAt,value
2022-11-09T00:00:02.637Z,12.30
2022-11-09T00:02:29.086Z,12.35
2022-11-09T00:04:57.752Z,12.39
2022-11-09T00:07:24.147Z,12.39
2022-11-09T00:09:50.599Z,12.36
2022-11-09T00:12:19.270Z,12.38
2022-11-09T00:14:45.718Z,12.40
2022-11-09T00:17:12.200Z,12.42
2022-11-09T00:19:41.731Z,12.37
2022-11-09T00:22:08.658Z,12.35
2022-11-09T00:24:35.439Z,12.34
2022-11-09T00:27:01.872Z,12.27
2022-11-09T00:29:28.548Z,12.26
2022-11-09T00:31:55.089Z,12.27
2022-11-09T00:34:23.853Z,12.23
2022-11-09T00:36:50.228Z,12.24
2022-11-09T00:39:16.748Z,12.22
2022-11-09T00:41:43.159Z,12.22
2022-11-09T00:44:09.672Z,12.24
2022-11-09T00:46:36.375Z,12.23
2022-11-09T00:49:05.008Z,12.23
2022-11-09T00:51:33.602Z,12.21
2022-11-09T00:54:00.076Z,12.20
2022-11-09T00:56:29.530Z,12.19
2022-11-09T00:58:56.181Z,12.15
2022-11-09T01:01:23.058Z,12.13
2022-11-09T01:03:49.724Z,12.12
2022-11-09T01:06:19.146Z,12.11
2022-11-09T01:08:46.650Z,12.09
2022-11-09T01:11:16.053Z,12.09
2022-11-09T01:13:42.527Z,12.10
2022-11-09T01:16:11.835Z,12.09
2022-11-09T01:18:38.985Z,12.09
2022-11-09T01:21:10.151Z,12.06
2022-11-09T01:23:37.153Z,12.07
2022-11-09T01:26:14.049Z,12.03
2022-11-09T01:28:43.466Z,12.02
2022-11-09T01:31:15.759Z,12.00
2022-11-09T01:33:42.590Z,11.97
2022-11-09T01:36:12.122Z,11.93
2022-11-09T01:38:39.439Z,11.90
2022-11-09T01:41:07.704Z,11.86
2022-11-09T01:43:37.280Z,11.87
2022-11-09T01:46:14.362Z,11.84
2022-11-09T01:48:46.078Z,11.79
2022-11-09T01:51:18.746Z,11.79
2022-11-09T01:53:49.692Z,11.77
2022-11-09T01:56:18.284Z,11.72
2022-11-09T01:58:50.467Z,11.69
2022-11-09T02:01:17.868Z,11.66
2022-11-09T02:03:55.971Z,11.61
2022-11-09T02:06:25.585Z,11.59
2022-11-09T02:08:56.447Z,11.56
2022-11-09T02:11:24.036Z,11.52
2022-11-09T02:13:56.991Z,11.48
2022-11-09T02:16:24.237Z,11.49
2022-11-09T02:18:53.985Z,11.47
2022-11-09T02:21:24.688Z,11.44
2022-11-09T02:23:51.793Z,11.42
2022-11-09T02:26:24.310Z,11.47
2022-11-09T02:28:54.372Z,11.43
2022-11-09T02:31:22.663Z,11.39
2022-11-09T02:34:00.055Z,11.39
2022-11-09T02:36:28.576Z,11.35
2022-11-09T02:38:56.356Z,11.34
2022-11-09T02:41:23.998Z,11.32
2022-11-09T02:43:52.455Z,11.30
2022-11-09T02:46:33.677Z,11.29
2022-11-09T02:49:03.727Z,11.29
2022-11-09T02:51:30.515Z,11.27
2022-11-09T02:53:56.930Z,11.31
2022-11-09T02:56:23.569Z,11.36
2022-11-09T02:58:50.101Z,11.38
2022-11-09T03:01:16.521Z,11.38
2022-11-09T03:03:43.105Z,11.42
2022-11-09T03:06:09.585Z,11.43
2022-11-09T03:08:36.818Z,11.45
2022-11-09T03:11:03.349Z,11.52
2022-11-09T03:13:29.720Z,11.51
2022-11-09T03:15:56.138Z,11.50
2022-11-09T03:18:22.516Z,11.51
2022-11-09T03:20:48.877Z,11.51
2022-11-09T03:23:15.306Z,11.50
2022-11-09T03:25:41.702Z,11.50
2022-11-09T03:28:10.415Z,11.52
2022-11-09T03:30:37.026Z,11.52
2022-11-09T03:33:09.921Z,11.52
2022-11-09T03:35:38.613Z,11.53
2022-11-09T03:38:07.374Z,11.52
2022-11-09T03:40:33.806Z,11.54
2022-11-09T03:43:00.230Z,11.56
2022-11-09T03:45:28.844Z,11.57
2022-11-09T03:48:00.356Z,11.60
2022-11-09T03:50:34.109Z,11.62
2022-11-09T03:53:01.124Z,11.62
2022-11-09T03:55:28.603Z,11.65
2022-11-09T03:57:55.290Z,11.64
2022-11-09T04:00:23.302Z,11.63
2022-11-09T04:02:50.108Z,11.64
2022-11-09T04:05:17.029Z,11.67
2022-11-09T04:07:50.725Z,11.64
2022-11-09T04:10:18.224Z,11.65
2022-11-09T04:12:44.748Z,11.67
2022-11-09T04:15:15.380Z,11.67
2022-11-09T04:17:41.906Z,11.71
2022-11-09T04:20:09.055Z,11.69
2022-11-09T04:22:35.527Z,11.71
2022-11-09T04:25:02.044Z,11.73
2022-11-09T04:27:29.942Z,11.74
2022-11-09T04:29:56.670Z,11.77
2022-11-09T04:32:26.024Z,11.79
2022-11-09T04:34:54.946Z,11.79
2022-11-09T04:37:23.714Z,11.78
2022-11-09T04:39:52.563Z,11.78
2022-11-09T04:42:19.301Z,11.79
2022-11-09T04:44:45.710Z,11.81
2022-11-09T04:47:12.094Z,11.83
2022-11-09T04:49:38.453Z,11.82
2022-11-09T04:52:04.835Z,11.88
2022-11-09T04:54:31.329Z,11.87
2022-11-09T04:56:57.686Z,11.87
2022-11-09T04:59:24.034Z,11.87
2022-11-09T05:01:50.468Z,11.87
2022-11-09T05:04:16.908Z,11.87
2022-11-09T05:06:43.340Z,11.89
2022-11-09T05:09:09.848Z,11.87
2022-11-09T05:11:37.040Z,11.93
2022-11-09T05:14:06.117Z,11.90
2022-11-09T05:16:34.859Z,11.90
2022-11-09T05:19:01.246Z,11.90
2022-11-09T05:21:27.695Z,11.88
2022-11-09T05:24:00.081Z,11.91
2022-11-09T05:26:29.016Z,11.90
2022-11-09T05:28:55.790Z,11.91
2022-11-09T05:31:22.274Z,11.93
2022-11-09T05:33:50.739Z,11.91
2022-11-09T05:36:20.028Z,11.90
2022-11-09T05:38:49.464Z,11.90
2022-11-09T05:41:18.498Z,11.89
2022-11-09T05:43:45.265Z,11.90
2022-11-09T05:46:13.482Z,11.87
2022-11-09T05:48:40.254Z,11.89
2022-11-09T05:51:08.708Z,11.87
2022-11-09T05:53:35.553Z,11.85
2022-11-09T05:56:05.079Z,11.86
2022-11-09T05:58:36.184Z,11.89
2022-11-09T06:01:05.938Z,11.86
2022-11-09T06:03:32.657Z,11.88
2022-11-09T06:06:08.339Z,11.87
2022-11-09T06:08:35.455Z,11.88
2022-11-09T06:11:06.287Z,11.86
2022-11-09T06:13:33.307Z,11.85
2022-11-09T06:16:01.531Z,11.85
2022-11-09T06:18:32.030Z,11.87
2022-11-09T06:21:01.511Z,11.90
2022-11-09T06:23:31.160Z,11.90
2022-11-09T06:25:59.714Z,11.88
2022-11-09T06:28:26.852Z,11.92
2022-11-09T06:30:53.661Z,11.90
2022-11-09T06:33:20.375Z,11.89
2022-11-09T06:35:49.788Z,11.94
2022-11-09T06:38:18.509Z,11.96
2022-11-09T06:40:45.222Z,11.94
2022-11-09T06:43:11.916Z,11.94
2022-11-09T06:45:38.275Z,11.95
2022-11-09T06:48:05.086Z,11.99
2022-11-09T06:50:34.826Z,11.98
2022-11-09T06:53:08.314Z,11.97
2022-11-09T06:55:36.200Z,12.00
2022-11-09T06:58:07.743Z,12.03
2022-11-09T07:00:34.305Z,12.03
2022-11-09T07:03:00.787Z,12.05
2022-11-09T07:05:27.436Z,12.05
2022-11-09T07:07:58.778Z,12.05
2022-11-09T07:10:25.259Z,12.14
2022-11-09T07:12:59.787Z,12.15
2022-11-09T07:15:26.203Z,12.16
2022-11-09T07:17:56.992Z,12.18
2022-11-09T07:20:27.010Z,12.17
2022-11-09T07:22:55.983Z,12.16
2022-11-09T07:25:23.037Z,12.18
2022-11-09T07:27:49.510Z,12.21
2022-11-09T07:30:20.737Z,12.21
2022-11-09T07:33:08.213Z,12.23
2022-11-09T07:35:38.490Z,12.24
2022-11-09T07:38:05.116Z,12.24
2022-11-09T07:40:31.510Z,12.27
2022-11-09T07:42:59.811Z,12.28
2022-11-09T07:45:27.175Z,12.30
2022-11-09T07:47:58.382Z,12.28
2022-11-09T07:50:25.907Z,12.31
2022-11-09T07:52:56.159Z,12.32
2022-11-09T07:55:23.206Z,12.32
2022-11-09T07:57:51.620Z,12.33
2022-11-09T08:00:23.345Z,12.33
2022-11-09T08:02:50.028Z,12.35
2022-11-09T08:05:16.612Z,12.36
2022-11-09T08:07:43.095Z,12.38
2022-11-09T08:10:10.099Z,12.41
2022-11-09T08:12:37.360Z,12.42
2022-11-09T08:15:07.295Z,12.44
2022-11-09T08:17:35.859Z,12.48
2022-11-09T08:20:03.049Z,12.50
2022-11-09T08:22:29.445Z,12.49
2022-11-09T08:24:58.251Z,12.46
2022-11-09T08:27:24.809Z,12.47
2022-11-09T08:29:51.172Z,12.45
2022-11-09T08:32:17.529Z,12.42
2022-11-09T08:34:49.991Z,12.44
2022-11-09T08:37:16.955Z,12.47
2022-11-09T08:39:45.890Z,12.47
2022-11-09T08:42:14.749Z,12.46
2022-11-09T08:44:41.112Z,12.48
2022-11-09T08:47:07.509Z,12.54
2022-11-09T08:49:35.040Z,12.57
2022-11-09T08:52:01.446Z,12.63
2022-11-09T08:54:27.963Z,12.69
2022-11-09T08:56:57.597Z,12.74
2022-11-09T08:59:26.425Z,12.78
2022-11-09T09:01:55.218Z,12.84
2022-11-09T09:04:21.696Z,12.87
2022-11-09T09:06:48.099Z,12.92
2022-11-09T09:09:16.951Z,12.93
2022-11-09T09:11:43.390Z,12.94
2022-11-09T09:14:09.746Z,13.00
2022-11-09T09:16:36.116Z,13.05
2022-11-09T09:19:04.893Z,13.18
2022-11-09T09:21:31.377Z,13.31
2022-11-09T09:23:58.006Z,13.32
2022-11-09T09:26:27.070Z,13.38
2022-11-09T09:28:53.464Z,13.46
2022-11-09T09:31:19.952Z,13.59
2022-11-09T09:33:47.455Z,13.70
2022-11-09T09:36:21.479Z,13.77
2022-11-09T09:38:54.823Z,13.77
2022-11-09T09:41:28.480Z,13.72
2022-11-09T09:43:59.028Z,13.84
2022-11-09T09:46:44.328Z,13.93
2022-11-09T09:49:19.031Z,13.95
2022-11-09T09:51:52.194Z,14.08
2022-11-09T09:54:25.873Z,14.08
2022-11-09T09:56:57.217Z,14.07
2022-11-09T09:59:40.887Z,13.92
2022-11-09T10:02:28.351Z,14.17
2022-11-09T10:04:57.905Z,14.24
2022-11-09T10:07:56.461Z,14.36
2022-11-09T10:10:40.120Z,14.32
2022-11-09T10:13:43.830Z,14.43
2022-11-09T10:16:14.283Z,14.42
2022-11-09T10:18:59.398Z,14.52
2022-11-09T10:21:58.237Z,14.56
2022-11-09T10:24:48.533Z,14.45
2022-11-09T10:27:30.213Z,14.42
2022-11-09T10:29:59.063Z,14.43
2022-11-09T10:32:31.489Z,14.49
2022-11-09T10:35:13.215Z,14.44
2022-11-09T10:37:41.180Z,14.50
2022-11-09T10:40:16.866Z,14.51
2022-11-09T10:43:05.382Z,14.42
2022-11-09T10:45:37.738Z,14.45
2022-11-09T10:48:08.518Z,14.43
2022-11-09T10:50:39.224Z,14.45
2022-11-09T10:53:18.159Z,14.45
2022-11-09T10:56:04.346Z,14.44
2022-11-09T10:58:38.398Z,14.51
2022-11-09T11:01:13.762Z,14.58
2022-11-09T11:03:42.105Z,14.69
2022-11-09T11:06:14.477Z,14.78
2022-11-09T11:08:45.885Z,14.77
2022-11-09T11:11:33.766Z,14.78
2022-11-09T11:14:29.227Z,14.88
2022-11-09T11:16:56.164Z,14.98
2022-11-09T11:19:37.446Z,15.00
2022-11-09T11:22:27.361Z,15.05
2022-11-09T11:25:11.569Z,15.00
2022-11-09T11:27:44.976Z,15.08
2022-11-09T11:30:15.788Z,15.16
2022-11-09T11:32:48.856Z,15.20
2022-11-09T11:35:26.921Z,15.26
2022-11-09T11:38:17.763Z,15.34
2022-11-09T11:40:53.948Z,15.33
2022-11-09T11:43:32.128Z,15.37
2022-11-09T11:46:22.254Z,15.46
2022-11-09T11:49:06.469Z,15.58
2022-11-09T11:51:54.490Z,15.64
2022-11-09T11:54:49.167Z,15.72
2022-11-09T11:57:45.294Z,15.67
2022-11-09T12:00:21.251Z,15.58
2022-11-09T12:03:03.330Z,15.58
2022-11-09T12:05:32.490Z,15.53
2022-11-09T12:08:21.268Z,15.47
2022-11-09T12:11:08.843Z,15.46
2022-11-09T12:13:49.761Z,15.50
2022-11-09T12:16:21.602Z,15.56
2022-11-09T12:19:05.676Z,15.48
2022-11-09T12:21:37.995Z,15.57
2022-11-09T12:24:30.643Z,15.62
2022-11-09T12:27:31.746Z,15.74
2022-11-09T12:30:08.312Z,15.82
2022-11-09T12:32:40.502Z,15.70
2022-11-09T12:35:25.452Z,15.65
2022-11-09T12:38:02.373Z,15.60
2022-11-09T12:40:36.537Z,15.44
2022-11-09T12:43:21.808Z,15.41
2022-11-09T12:45:51.201Z,15.35
2022-11-09T12:48:35.274Z,15.30
2022-11-09T12:51:05.241Z,15.36
2022-11-09T12:53:39.237Z,15.40
2022-11-09T12:56:19.057Z,15.38
2022-11-09T12:58:45.935Z,15.40
2022-11-09T13:01:33.986Z,15.40
2022-11-09T13:04:03.745Z,15.31
2022-11-09T13:06:32.264Z,15.23
2022-11-09T13:09:05.710Z,15.16
2022-11-09T13:11:38.003Z,15.13
2022-11-09T13:14:22.513Z,15.07
2022-11-09T13:16:50.445Z,15.08
2022-11-09T13:19:38.085Z,15.04
2022-11-09T13:22:13.365Z,15.05
2022-11-09T13:25:02.971Z,15.06
2022-11-09T13:27:40.369Z,15.00
2022-11-09T13:30:28.317Z,15.00
2022-11-09T13:33:06.948Z,15.01
2022-11-09T13:35:42.655Z,14.96
2022-11-09T13:38:16.707Z,14.97
2022-11-09T13:40:50.480Z,15.00
2022-11-09T13:43:30.382Z,14.99
2022-11-09T13:46:01.442Z,15.04
2022-11-09T13:48:34.627Z,15.01
2022-11-09T13:51:04.633Z,14.98
2022-11-09T13:53:37.129Z,14.97
2022-11-09T13:56:40.639Z,14.96
2022-11-09T13:59:33.355Z,14.94
2022-11-09T14:02:01.747Z,14.92
2022-11-09T14:04:34.002Z,14.92
2022-11-09T14:07:07.568Z,14.89
2022-11-09T14:10:18.858Z,14.91
2022-11-09T14:13:06.739Z,14.87
2022-11-09T14:15:42.484Z,14.86
2022-11-09T14:18:14.036Z,14.84
2022-11-09T14:20:58.317Z,14.78
2022-11-09T14:23:30.249Z,14.74
2022-11-09T14:25:57.365Z,14.74
2022-11-09T14:28:26.618Z,14.71
2022-11-09T14:30:53.822Z,14.65
2022-11-09T14:33:26.570Z,14.65
2022-11-09T14:35:57.203Z,14.63
2022-11-09T14:38:31.304Z,14.59
2022-11-09T14:40:57.871Z,14.54
2022-11-09T14:43:38.817Z,14.52
2022-11-09T14:46:14.469Z,14.49
2022-11-09T14:48:49.503Z,14.46
2022-11-09T14:51:16.546Z,14.45
2022-11-09T14:53:44.222Z,14.41
2022-11-09T14:56:13.884Z,14.37
2022-11-09T14:58:42.548Z,14.33
2022-11-09T15:01:18.118Z,14.30
2022-11-09T15:03:45.450Z,14.27
2022-11-09T15:06:17.196Z,14.26
2022-11-09T15:09:00.242Z,14.21
2022-11-09T15:11:35.939Z,14.18
2022-11-09T15:14:18.950Z,14.19
2022-11-09T15:16:49.458Z,14.14
2022-11-09T15:19:52.892Z,14.11
2022-11-09T15:22:40.558Z,14.12
2022-11-09T15:25:19.092Z,14.05
2022-11-09T15:27:56.213Z,14.01
2022-11-09T15:30:39.809Z,13.98
2022-11-09T15:33:21.450Z,13.96
2022-11-09T15:36:04.785Z,13.89
2022-11-09T15:38:34.010Z,13.89
2022-11-09T15:41:01.072Z,13.82
2022-11-09T15:43:30.586Z,13.75
2022-11-09T15:46:00.481Z,13.73
2022-11-09T15:48:30.073Z,13.70
2022-11-09T15:50:59.098Z,13.65
2022-11-09T15:53:26.126Z,13.69
2022-11-09T15:55:52.651Z,13.62
2022-11-09T15:58:19.850Z,13.59
2022-11-09T16:00:46.533Z,13.54
2022-11-09T16:03:13.631Z,13.50
2022-11-09T16:05:42.315Z,13.45
2022-11-09T16:08:09.450Z,13.40
2022-11-09T16:10:39.865Z,13.46
2022-11-09T16:13:10.270Z,13.47
2022-11-09T16:15:37.649Z,13.40
2022-11-09T16:18:04.582Z,13.36
2022-11-09T16:20:31.243Z,13.31
2022-11-09T16:22:57.852Z,13.29
2022-11-09T16:25:24.237Z,13.29
2022-11-09T16:27:51.524Z,13.25
2022-11-09T16:30:19.279Z,13.22
2022-11-09T16:32:45.719Z,13.18
2022-11-09T16:35:28.431Z,13.30
2022-11-09T16:37:57.920Z,13.23
2022-11-09T16:40:25.832Z,13.25
2022-11-09T16:42:52.327Z,13.24
2022-11-09T16:45:22.027Z,13.24
2022-11-09T16:47:56.846Z,13.24
2022-11-09T16:50:24.103Z,13.19
2022-11-09T16:52:50.549Z,13.22
2022-11-09T16:55:17.204Z,13.22
2022-11-09T16:57:43.579Z,13.23
2022-11-09T17:00:10.511Z,13.23
2022-11-09T17:02:36.949Z,13.21
2022-11-09T17:05:03.963Z,13.23
2022-11-09T17:07:30.366Z,13.20
2022-11-09T17:09:57.019Z,13.17
2022-11-09T17:12:23.430Z,13.16
2022-11-09T17:14:49.785Z,13.15
2022-11-09T17:17:22.229Z,13.20
2022-11-09T17:19:49.140Z,13.28
2022-11-09T17:22:15.868Z,13.30
2022-11-09T17:24:42.788Z,13.30
2022-11-09T17:27:10.312Z,13.35
2022-11-09T17:29:37.801Z,13.35
2022-11-09T17:32:09.332Z,13.30
2022-11-09T17:34:36.036Z,13.32
2022-11-09T17:37:04.642Z,13.27
2022-11-09T17:39:31.829Z,13.25
2022-11-09T17:41:58.210Z,13.23
2022-11-09T17:44:24.671Z,13.17
2022-11-09T17:46:53.550Z,13.14
2022-11-09T17:49:20.033Z,13.07
2022-11-09T17:51:46.420Z,13.04
2022-11-09T17:54:15.145Z,13.04
2022-11-09T17:56:41.834Z,12.99
2022-11-09T17:59:11.296Z,12.97
2022-11-09T18:01:41.496Z,12.92
2022-11-09T18:04:13.050Z,12.90
2022-11-09T18:06:39.623Z,12.88
2022-11-09T18:11:55.529Z,12.81
2022-11-09T18:14:24.515Z,12.78
2022-11-09T18:16:51.032Z,12.75
2022-11-09T18:19:17.519Z,12.74
2022-11-09T18:21:47.394Z,12.69
2022-11-09T18:24:14.292Z,12.67
2022-11-09T18:26:40.747Z,12.64
2022-11-09T18:29:09.720Z,12.59
2022-11-09T18:31:36.186Z,12.57
2022-11-09T18:34:02.696Z,12.56
2022-11-09T18:36:29.075Z,12.54
2022-11-09T18:38:55.908Z,12.53
2022-11-09T18:41:24.037Z,12.51
2022-11-09T18:43:51.587Z,12.48
2022-11-09T18:46:19.757Z,12.48
2022-11-09T18:48:50.962Z,12.44
2022-11-09T18:51:17.695Z,12.42
2022-11-09T18:53:45.852Z,12.40
2022-11-09T18:56:18.619Z,12.37
2022-11-09T18:58:46.095Z,12.36
2022-11-09T19:01:12.957Z,12.31
2022-11-09T19:03:39.657Z,12.29
2022-11-09T19:06:14.608Z,12.27
2022-11-09T19:08:59.500Z,12.26
2022-11-09T19:11:29.992Z,12.21
2022-11-09T19:13:57.033Z,12.19
2022-11-09T19:16:24.806Z,12.18
2022-11-09T19:18:51.371Z,12.15
2022-11-09T19:21:34.688Z,12.11
2022-11-09T19:24:03.704Z,12.08
2022-11-09T19:26:30.253Z,12.11
2022-11-09T19:28:56.739Z,12.06
2022-11-09T19:31:24.397Z,12.02
2022-11-09T19:33:54.439Z,11.98
2022-11-09T19:36:31.255Z,11.94
2022-11-09T19:38:58.115Z,11.92
2022-11-09T19:41:25.520Z,11.91
2022-11-09T19:43:58.387Z,11.89
2022-11-09T19:46:31.985Z,11.90
2022-11-09T19:48:58.555Z,11.89
2022-11-09T19:51:25.352Z,11.88
2022-11-09T19:53:55.098Z,11.90
2022-11-09T19:56:23.722Z,11.87
2022-11-09T19:58:51.949Z,11.85
2022-11-09T20:01:19.048Z,11.86
2022-11-09T20:03:49.859Z,11.80
2022-11-09T20:06:17.115Z,11.76
2022-11-09T20:08:43.594Z,11.64
2022-11-09T20:11:34.572Z,11.63
2022-11-09T20:14:03.555Z,11.60
2022-11-09T20:16:30.301Z,11.59
2022-11-09T20:18:59.601Z,11.48
2022-11-09T20:21:26.171Z,11.44
2022-11-09T20:23:52.804Z,11.63
2022-11-09T20:26:21.818Z,11.47
2022-11-09T20:28:48.251Z,11.42
2022-11-09T20:31:22.060Z,11.33
2022-11-09T20:33:49.791Z,11.28
2022-11-09T20:36:16.327Z,11.19
2022-11-09T20:38:42.841Z,11.12
2022-11-09T20:41:11.231Z,11.06
2022-11-09T20:43:38.429Z,10.99
2022-11-09T20:46:07.212Z,10.89
2022-11-09T20:51:21.463Z,10.78
2022-11-09T20:53:49.727Z,10.75
2022-11-09T20:56:16.675Z,10.67
2022-11-09T20:58:43.216Z,10.62
2022-11-09T21:01:14.233Z,10.57
2022-11-09T21:03:41.467Z,10.53
2022-11-09T21:06:09.358Z,10.52
2022-11-09T21:08:36.418Z,10.49
2022-11-09T21:11:04.981Z,10.43
2022-11-09T21:13:32.022Z,10.44
2022-11-09T21:16:09.371Z,10.45
2022-11-09T21:18:36.048Z,10.47
2022-11-09T21:21:10.743Z,10.43
2022-11-09T21:23:56.604Z,10.46
2022-11-09T21:26:45.251Z,10.30
2022-11-09T21:29:33.772Z,10.35
2022-11-09T21:32:00.407Z,10.26
2022-11-09T21:34:30.364Z,10.28
2022-11-09T21:36:59.169Z,10.18
2022-11-09T21:39:25.907Z,10.15
2022-11-09T21:41:52.335Z,10.12
2022-11-09T21:44:18.831Z,10.08
2022-11-09T21:46:45.407Z,10.08
2022-11-09T21:49:13.590Z,10.00
2022-11-09T21:51:40.822Z,9.97
2022-11-09T21:54:08.359Z,9.92
2022-11-09T21:56:35.069Z,9.87
2022-11-09T21:59:01.520Z,9.88
2022-11-09T22:01:28.138Z,9.88
2022-11-09T22:03:54.802Z,9.89
2022-11-09T22:06:25.507Z,9.95
2022-11-09T22:08:51.931Z,10.01
2022-11-09T22:11:21.199Z,10.14
2022-11-09T22:14:06.040Z,10.13
2022-11-09T22:16:36.297Z,10.29
2022-11-09T22:19:21.584Z,10.44
2022-11-09T22:21:50.520Z,10.49
2022-11-09T22:24:16.943Z,10.48
2022-11-09T22:26:43.407Z,10.67
2022-11-09T22:29:11.944Z,10.65
2022-11-09T22:31:40.987Z,10.65
2022-11-09T22:34:07.440Z,10.66
2022-11-09T22:36:36.997Z,10.62
2022-11-09T22:39:03.660Z,10.56
2022-11-09T22:41:30.194Z,10.49
2022-11-09T22:43:57.094Z,10.39
2022-11-09T22:46:23.797Z,10.30
2022-11-09T22:48:52.699Z,10.23
2022-11-09T22:51:19.574Z,10.16
2022-11-09T22:53:53.075Z,10.16
2022-11-09T22:56:22.061Z,10.05
2022-11-09T22:58:52.236Z,9.98
2022-11-09T23:01:20.247Z,9.96
2022-11-09T23:03:46.915Z,9.92
2022-11-09T23:06:20.350Z,9.82
2022-11-09T23:08:47.195Z,9.82
2022-11-09T23:11:19.620Z,9.76
2022-11-09T23:13:51.090Z,9.63
2022-11-09T23:16:17.971Z,9.66
2022-11-09T23:18:54.108Z,9.59
2022-11-09T23:21:35.252Z,9.52
2022-11-09T23:24:06.735Z,9.51
2022-11-09T23:26:34.190Z,9.43
2022-11-09T23:29:01.049Z,9.38
2022-11-09T23:31:30.051Z,9.31
2022-11-09T23:33:57.896Z,9.27
2022-11-09T23:36:26.579Z,9.20
2022-11-09T23:38:55.229Z,9.14
2022-11-09T23:41:21.747Z,9.11
2022-11-09T23:43:49.986Z,9.06
2022-11-09T23:46:18.093Z,9.02
2022-11-09T23:48:47.496Z,8.96
2022-11-09T23:51:14.025Z,9.00
2022-11-09T23:53:40.414Z,8.93
2022-11-09T23:56:09.463Z,8.96
2022-11-09T23:58:37.060Z,8.88
